Time;durP1;ratioP1;P1;durP2;ratioP2;P2;SDS_P1;SDS_P2;PMS_P1;PMS_P2;Temp;Humidity;BMP_temperature;BMP_pressure;BME280_temperature;BME280_humidity;BME280_pressure;Samples;Min_cycle;Max_cycle;Signal;HPM_P1;HPM_P2
2021/07/27 00:00:39;;;;;;;;;;;;;;;20.62;71.44;100828.00;5016655;28;2005;-66
2021/07/27 00:03:04;;;;;;;;;;;;;;;20.31;71.83;100836.66;5016133;28;1844;-66
2021/07/27 00:05:29;;;;;;;;;;;;;;;20.26;72.18;100832.72;5016024;28;823;-66
2021/07/27 00:07:54;;;;;;;;;;;;;;;20.44;71.72;100830.81;5016181;28;811;-66
2021/07/27 00:10:19;;;;;;;;;;;;;;;20.43;71.31;100835.38;5015793;28;1752;-66
2021/07/27 00:12:44;;;;;;;;;;;;;;;20.45;71.62;100843.34;5016169;28;843;-66
2021/07/27 00:15:09;;;;;;;;;;;;;;;20.41;71.94;100837.44;5016137;28;1057;-66
2021/07/27 00:17:34;;;;;;;;;;;;;;;20.48;71.60;100847.59;5016497;28;1061;-66
2021/07/27 00:19:59;;;;;;;;;;;;;;;20.49;71.41;100841.16;5016671;28;1971;-66
2021/07/27 00:22:25;;;;;;;;;;;;;;;20.53;71.83;100842.53;5016130;28;1692;-66
2021/07/27 00:24:51;;;;;;;;;;;;;;;20.43;71.38;100845.34;5016391;28;799;-66
2021/07/27 00:27:17;;;;;;;;;;;;;;;20.34;72.02;100839.03;5016246;28;1047;-67
2021/07/27 00:29:42;;;;;;;;;;;;;;;20.48;71.90;100842.16;5016536;28;1701;-67
2021/07/27 00:32:07;;;;;;;;;;;;;;;20.53;71.54;100847.94;5016646;28;934;-67
2021/07/27 00:34:32;;;;;;;;;;;;;;;20.45;71.33;100848.75;5016352;28;891;-67
2021/07/27 00:36:57;;;;;;;;;;;;;;;20.28;71.68;100836.13;5015133;28;1800;-67
2021/07/27 00:39:23;;;;;;;;;;;;;;;20.36;72.16;100849.72;5014701;28;1643;-66
2021/07/27 00:41:48;;;;;;;;;;;;;;;20.47;71.36;100846.72;5015965;28;1945;-66
2021/07/27 00:44:13;;;;;;;;;;;;;;;20.24;71.87;100841.03;5016068;28;847;-67
2021/07/27 00:46:38;;;;;;;;;;;;;;;20.43;71.12;100850.78;5016574;28;938;-66
2021/07/27 00:49:03;;;;;;;;;;;;;;;20.30;71.38;100845.78;5013908;28;1718;-66
2021/07/27 00:51:28;;;;;;;;;;;;;;;20.38;71.55;100845.03;5015883;28;1092;-66
2021/07/27 00:53:53;;;;;;;;;;;;;;;20.42;70.92;100843.69;5015935;28;982;-66
2021/07/27 00:56:18;;;;;;;;;;;;;;;20.32;71.47;100837.50;5014509;28;1449;-66
2021/07/27 00:58:43;;;;;;;;;;;;;;;20.45;71.65;100837.91;5015878;28;1769;-66
2021/07/27 01:01:08;;;;;;;;;;;;;;;20.47;70.94;100841.31;5016281;28;1977;-66
2021/07/27 01:03:33;;;;;;;;;;;;;;;20.58;70.77;100838.31;5015928;28;895;-66
2021/07/27 01:05:58;;;;;;;;;;;;;;;20.69;70.68;100829.03;5015839;28;1062;-66
2021/07/27 01:08:23;;;;;;;;;;;;;;;20.60;70.79;100835.47;5015753;28;1753;-66
2021/07/27 01:10:49;;;;;;;;;;;;;;;20.34;71.46;100830.06;5015627;28;882;-66
2021/07/27 01:13:14;;;;;;;;;;;;;;;20.44;71.66;100828.09;5015557;28;863;-66
2021/07/27 01:15:39;;;;;;;;;;;;;;;20.47;71.42;100824.22;5015825;28;950;-66
2021/07/27 01:18:08;;;;;;;;;;;;;;;20.59;71.38;100833.75;5015644;28;1790;-66
2021/07/27 01:20:52;;;;;;;;;;;;;;;20.66;70.90;100834.78;5015986;28;1894;-66
2021/07/27 01:39:41;;;;;;;;;;;;;;;20.80;70.03;100809.75;5015232;28;618;-66
2021/07/27 01:42:11;;;;;;;;;;;;;;;20.85;69.97;100798.44;5015214;28;1960;-66
2021/07/27 01:44:42;;;;;;;;;;;;;;;20.89;69.62;100797.94;5015361;28;823;-66
2021/07/27 01:47:07;;;;;;;;;;;;;;;20.95;69.16;100789.16;5015087;28;1759;-66
2021/07/27 01:49:32;;;;;;;;;;;;;;;20.98;69.44;100796.91;5014900;28;1617;-66
2021/07/27 01:51:58;;;;;;;;;;;;;;;20.99;69.30;100793.19;5013912;28;1329;-66
2021/07/27 01:54:29;;;;;;;;;;;;;;;21.00;69.29;100800.31;5014998;28;799;-66
2021/07/27 01:56:54;;;;;;;;;;;;;;;20.99;68.85;100798.59;5014808;28;1676;-66
2021/07/27 01:59:19;;;;;;;;;;;;;;;21.01;69.22;100802.00;5014989;28;1110;-66
2021/07/27 02:01:44;;;;;;;;;;;;;;;21.01;69.31;100801.16;5015194;28;1910;-66
2021/07/27 02:04:10;;;;;;;;;;;;;;;21.01;69.35;100804.72;5013604;28;843;-66
2021/07/27 02:06:35;;;;;;;;;;;;;;;20.93;69.60;100802.00;5015174;28;792;-66
2021/07/27 02:09:05;;;;;;;;;;;;;;;20.93;69.85;100804.72;5014862;28;1765;-67
2021/07/27 02:11:38;;;;;;;;;;;;;;;20.96;69.21;100801.66;5015226;28;1753;-66
2021/07/27 02:14:03;;;;;;;;;;;;;;;20.98;69.11;100796.91;5015106;28;811;-66
2021/07/27 02:16:28;;;;;;;;;;;;;;;20.95;69.27;100797.28;5014911;28;811;-66
2021/07/27 02:18:53;;;;;;;;;;;;;;;20.95;68.95;100797.28;5015393;28;914;-66
2021/07/27 02:21:18;;;;;;;;;;;;;;;20.95;68.75;100791.00;5014458;28;1890;-67
2021/07/27 02:23:44;;;;;;;;;;;;;;;20.92;69.11;100792.19;5014765;28;1054;-67
2021/07/27 02:26:09;;;;;;;;;;;;;;;20.90;68.83;100787.94;5014675;28;1061;-67
2021/07/27 02:28:34;;;;;;;;;;;;;;;20.79;69.21;100787.25;5014559;28;1621;-67
2021/07/27 02:31:01;;;;;;;;;;;;;;;20.79;69.68;100786.38;5014692;28;847;-66
2021/07/27 02:33:27;;;;;;;;;;;;;;;20.74;69.25;100796.91;5014799;28;1299;-66
2021/07/27 02:35:53;;;;;;;;;;;;;;;20.79;69.39;100791.81;5014611;28;853;-66
2021/07/27 02:38:18;;;;;;;;;;;;;;;20.82;69.25;100786.06;5013218;28;1718;-66
2021/07/27 02:40:43;;;;;;;;;;;;;;;20.78;69.17;100790.13;5014242;28;1890;-67
2021/07/27 02:43:10;;;;;;;;;;;;;;;20.73;68.95;100795.19;5013393;28;883;-67
2021/07/27 02:45:35;;;;;;;;;;;;;;;20.79;69.47;100794.50;5015075;28;764;-66
2021/07/27 02:48:00;;;;;;;;;;;;;;;20.84;68.76;100800.28;5014332;28;1725;-67
2021/07/27 02:50:25;;;;;;;;;;;;;;;20.82;68.79;100799.59;5014330;28;1815;-67
2021/07/27 02:52:50;;;;;;;;;;;;;;;20.81;68.75;100797.91;5014234;28;890;-67
2021/07/27 02:55:15;;;;;;;;;;;;;;;20.81;68.98;100800.63;5014636;28;998;-67
2021/07/27 02:57:40;;;;;;;;;;;;;;;20.84;69.04;100791.31;5014237;28;1521;-67
2021/07/27 03:00:05;;;;;;;;;;;;;;;20.86;69.37;100786.56;5014448;28;1907;-67
2021/07/27 03:02:30;;;;;;;;;;;;;;;20.87;68.75;100799.09;5014390;28;820;-67
2021/07/27 03:04:55;;;;;;;;;;;;;;;20.83;69.04;100798.59;5013012;28;1212;-67
2021/07/27 03:07:21;;;;;;;;;;;;;;;20.86;69.10;100797.41;5014383;28;922;-67
2021/07/27 03:10:17;;;;;;;;;;;;;;;20.88;68.66;100798.09;5014320;28;1725;-67
2021/07/27 03:12:31;;;;;;;;;;;;;;;20.86;68.65;100792.84;5017173;28;1575;-67
2021/07/27 03:14:56;;;;;;;;;;;;;;;20.77;69.08;100785.75;5016482;28;1318;-67
2021/07/27 03:17:21;;;;;;;;;;;;;;;20.80;68.60;100788.94;5017974;28;1073;-67
2021/07/27 03:19:46;;;;;;;;;;;;;;;20.82;68.52;100798.75;5017828;28;997;-67
2021/07/27 03:22:11;;;;;;;;;;;;;;;20.86;68.56;100798.25;5017703;28;1890;-67
2021/07/27 03:24:36;;;;;;;;;;;;;;;20.89;68.43;100799.78;5017722;28;1042;-66
2021/07/27 03:27:01;;;;;;;;;;;;;;;20.90;69.03;100790.66;5018030;28;978;-66
2021/07/27 03:29:26;;;;;;;;;;;;;;;20.89;69.13;100792.50;5017637;28;795;-67
2021/07/27 03:31:51;;;;;;;;;;;;;;;20.89;69.15;100787.09;5017757;28;1010;-67
2021/07/27 03:34:16;;;;;;;;;;;;;;;20.74;68.81;100788.78;5017329;28;1680;-67
2021/07/27 03:36:42;;;;;;;;;;;;;;;20.78;68.25;100787.44;5017494;28;910;-67
2021/07/27 03:39:08;;;;;;;;;;;;;;;20.82;68.63;100780.66;5017339;28;863;-67
2021/07/27 03:41:34;;;;;;;;;;;;;;;20.69;69.25;100783.00;5015995;28;1898;-67
2021/07/27 03:43:59;;;;;;;;;;;;;;;20.74;69.27;100783.34;5017675;28;970;-66
2021/07/27 03:46:24;;;;;;;;;;;;;;;20.80;68.94;100786.22;5017376;28;1959;-66
2021/07/27 03:48:49;;;;;;;;;;;;;;;20.87;68.48;100783.72;5017301;28;1002;-66
2021/07/27 03:51:14;;;;;;;;;;;;;;;20.86;68.50;100779.31;5017623;28;854;-67
2021/07/27 03:53:39;;;;;;;;;;;;;;;20.89;68.71;100786.25;5016977;28;1004;-67
2021/07/27 03:56:04;;;;;;;;;;;;;;;20.88;68.53;100782.69;5016880;28;1872;-66
2021/07/27 03:58:30;;;;;;;;;;;;;;;20.90;68.78;100787.94;5017161;28;1695;-66
2021/07/27 04:00:55;;;;;;;;;;;;;;;20.89;68.60;100797.94;5017321;28;1914;-66
2021/07/27 04:03:20;;;;;;;;;;;;;;;20.87;69.06;100783.72;5016853;28;1787;-67
2021/07/27 04:05:45;;;;;;;;;;;;;;;20.89;68.64;100784.38;5016892;28;906;-67
2021/07/27 04:08:10;;;;;;;;;;;;;;;20.89;68.66;100784.38;5016829;28;1729;-67
2021/07/27 04:10:35;;;;;;;;;;;;;;;20.90;68.85;100788.78;5016722;28;717;-67
2021/07/27 04:13:00;;;;;;;;;;;;;;;20.91;68.91;100785.06;5016793;28;870;-67
2021/07/27 04:15:25;;;;;;;;;;;;;;;20.90;68.29;100783.38;5016874;28;990;-66
2021/07/27 04:17:50;;;;;;;;;;;;;;;20.89;68.27;100787.09;5016801;28;962;-66
2021/07/27 04:20:15;;;;;;;;;;;;;;;20.88;68.81;100789.97;5016270;28;1957;-66
2021/07/27 04:22:40;;;;;;;;;;;;;;;20.87;68.67;100797.25;5014084;28;1634;-66
2021/07/27 04:25:05;;;;;;;;;;;;;;;20.85;68.97;100796.56;5016349;28;914;-67
2021/07/27 04:27:31;;;;;;;;;;;;;;;20.82;68.59;100782.50;5016445;28;906;-66
2021/07/27 04:29:56;;;;;;;;;;;;;;;20.74;68.96;100783.34;5016333;28;795;-66
2021/07/27 04:32:21;;;;;;;;;;;;;;;20.77;69.07;100789.28;5016221;28;1728;-66
2021/07/27 04:34:46;;;;;;;;;;;;;;;20.62;68.68;100785.50;5016242;28;823;-66
2021/07/27 04:37:11;;;;;;;;;;;;;;;20.65;68.85;100785.19;5016261;28;966;-66
2021/07/27 04:39:36;;;;;;;;;;;;;;;20.72;68.58;100791.66;5016103;28;1684;-66
2021/07/27 04:42:01;;;;;;;;;;;;;;;20.74;68.44;100788.78;5016362;28;1902;-67
2021/07/27 04:44:26;;;;;;;;;;;;;;;20.75;68.42;100785.91;5016170;28;1850;-67
2021/07/27 04:46:51;;;;;;;;;;;;;;;20.71;69.19;100783.69;5016085;28;835;-67
2021/07/27 04:49:16;;;;;;;;;;;;;;;20.58;69.56;100780.63;5014930;28;1266;-67
2021/07/27 04:51:42;;;;;;;;;;;;;;;20.53;69.26;100791.09;5015963;28;815;-67
2021/07/27 04:54:12;;;;;;;;;;;;;;;20.51;68.91;100798.53;5016055;28;998;-67
2021/07/27 04:56:37;;;;;;;;;;;;;;;20.58;69.12;100786.88;5016067;28;1726;-67
2021/07/27 04:59:02;;;;;;;;;;;;;;;20.56;68.87;100793.47;5015734;28;1835;-67
2021/07/27 05:01:27;;;;;;;;;;;;;;;20.58;69.07;100781.47;5015602;28;1918;-67
2021/07/27 05:03:53;;;;;;;;;;;;;;;20.66;69.00;100786.03;5015854;28;1014;-67
2021/07/27 05:06:18;;;;;;;;;;;;;;;20.65;68.81;100784.34;5015727;28;990;-67
2021/07/27 05:08:43;;;;;;;;;;;;;;;20.66;69.34;100780.63;5014479;28;1794;-67
2021/07/27 05:11:08;;;;;;;;;;;;;;;20.68;69.52;100789.44;5014718;28;1634;-67
2021/07/27 05:13:33;;;;;;;;;;;;;;;20.67;68.69;100791.28;5014338;28;1359;-67
2021/07/27 05:15:58;;;;;;;;;;;;;;;20.61;68.67;100788.38;5013898;28;2899;-66
2021/07/27 05:18:23;;;;;;;;;;;;;;;20.63;69.78;100780.94;5011433;28;1593;-66
2021/07/27 05:20:48;;;;;;;;;;;;;;;20.69;68.96;100785.72;5012373;28;1955;-66
2021/07/27 05:23:13;;;;;;;;;;;;;;;20.70;68.95;100784.69;5012688;28;1508;-66
2021/07/27 05:25:41;;;;;;;;;;;;;;;20.67;68.79;100785.03;5012440;28;1305;-66
2021/07/27 05:28:06;;;;;;;;;;;;;;;20.70;68.55;100782.84;5012016;28;1329;-67
2021/07/27 05:30:31;;;;;;;;;;;;;;;20.64;68.99;100782.63;5012661;28;1760;-67
2021/07/27 05:33:00;;;;;;;;;;;;;;;20.49;68.96;100784.31;5012601;28;1383;-67
2021/07/27 05:35:26;;;;;;;;;;;;;;;20.55;68.46;100780.94;5013927;28;1462;-67
2021/07/27 05:37:51;;;;;;;;;;;;;;;20.52;69.32;100789.41;5044992;28;1689;-67
2021/07/27 05:40:16;;;;;;;;;;;;;;;20.56;68.88;100783.50;5013123;28;1890;-66
2021/07/27 05:42:42;;;;;;;;;;;;;;;20.57;68.87;100792.47;5043840;28;1504;-68
2021/07/27 05:45:07;;;;;;;;;;;;;;;20.52;68.89;100789.41;5014474;28;1692;-67
2021/07/27 05:47:33;;;;;;;;;;;;;;;20.48;69.15;100788.03;5014133;28;1441;-66
2021/07/27 05:49:58;;;;;;;;;;;;;;;20.56;68.29;100796.19;5013921;28;1528;-67
2021/07/27 05:52:23;;;;;;;;;;;;;;;20.59;68.96;100793.16;5012729;28;1441;-69
2021/07/27 05:54:48;;;;;;;;;;;;;;;20.61;69.89;100791.94;5013227;28;1463;-69
2021/07/27 05:57:13;;;;;;;;;;;;;;;20.51;70.40;100791.25;5013669;28;1468;-69
2021/07/27 05:59:38;;;;;;;;;;;;;;;20.42;70.38;100789.56;5012761;28;1885;-69
2021/07/27 06:02:03;;;;;;;;;;;;;;;20.53;70.22;100782.97;5013263;28;1902;-70
2021/07/27 06:04:29;;;;;;;;;;;;;;;20.58;70.00;100786.03;5012792;28;1508;-70
2021/07/27 06:06:55;;;;;;;;;;;;;;;20.55;69.59;100784.50;5011976;28;1378;-70
2021/07/27 06:09:20;;;;;;;;;;;;;;;20.53;69.51;100780.25;5012062;28;2643;-70
2021/07/27 06:11:45;;;;;;;;;;;;;;;20.51;69.46;100783.13;5013003;28;1512;-70
2021/07/27 06:14:10;;;;;;;;;;;;;;;20.61;69.96;100788.38;5013062;28;1500;-70
2021/07/27 06:16:36;;;;;;;;;;;;;;;20.59;69.05;100785.88;5012841;28;1427;-70
2021/07/27 06:19:01;;;;;;;;;;;;;;;20.59;68.48;100790.44;5012562;28;1510;-70
2021/07/27 06:21:27;;;;;;;;;;;;;;;20.57;68.89;100793.31;5013319;28;1910;-70
2021/07/27 06:23:52;;;;;;;;;;;;;;;20.65;69.12;100787.06;5012268;28;1429;-68
2021/07/27 06:26:17;;;;;;;;;;;;;;;20.75;69.03;100785.06;5013853;28;1749;-67
2021/07/27 06:28:42;;;;;;;;;;;;;;;20.84;68.51;100789.44;5016573;28;1581;-67
2021/07/27 06:31:11;;;;;;;;;;;;;;;20.91;68.55;100790.50;5015373;28;1496;-68
2021/07/27 06:33:36;;;;;;;;;;;;;;;20.93;68.99;100793.88;5014165;28;1345;-68
2021/07/27 06:36:01;;;;;;;;;;;;;;;20.97;68.25;100787.09;5025500;28;1484;-68
2021/07/27 06:38:26;;;;;;;;;;;;;;;20.98;68.74;100791.50;5025898;28;1456;-68
2021/07/27 06:40:51;;;;;;;;;;;;;;;21.00;68.07;100800.31;5024651;28;1890;-68
2021/07/27 06:43:16;;;;;;;;;;;;;;;21.00;68.90;100800.31;5021289;28;1584;-68
2021/07/27 06:45:42;;;;;;;;;;;;;;;20.98;68.34;100796.91;5028645;28;1173;-69
2021/07/27 06:48:07;;;;;;;;;;;;;;;21.00;69.03;100805.72;5019034;28;1189;-72
2021/07/27 06:50:32;;;;;;;;;;;;;;;21.04;68.78;100804.38;5018760;28;1228;-69
2021/07/27 06:52:57;;;;;;;;;;;;;;;21.07;68.27;100804.03;5019363;28;1570;-71
2021/07/27 06:55:22;;;;;;;;;;;;;;;21.02;68.82;100811.81;5034648;28;1358;-71
2021/07/27 06:57:47;;;;;;;;;;;;;;;20.99;68.81;100805.88;5024658;28;1455;-69
2021/07/27 07:00:12;;;;;;;;;;;;;;;21.00;68.29;100813.84;5028405;28;1969;-70
2021/07/27 07:02:37;;;;;;;;;;;;;;;20.95;68.33;100813.53;5027140;28;1636;-70
2021/07/27 07:05:02;;;;;;;;;;;;;;;20.92;68.46;100816.56;5034394;28;1501;-70
2021/07/27 07:07:27;;;;;;;;;;;;;;;20.93;68.77;100810.13;5053908;28;1700;-69
2021/07/27 07:09:53;;;;;;;;;;;;;;;21.00;68.41;100813.00;5031126;28;1418;-71
2021/07/27 07:12:18;;;;;;;;;;;;;;;21.04;67.85;100812.50;5028698;28;1808;-71
2021/07/27 07:14:43;;;;;;;;;;;;;;;21.11;67.78;100818.13;5033507;28;1962;-67
2021/07/27 07:17:09;;;;;;;;;;;;;;;21.10;68.17;100811.84;5020962;28;1490;-68
2021/07/27 07:19:34;;;;;;;;;;;;;;;21.11;68.00;100815.41;5029715;28;1819;-69
2021/07/27 07:21:59;;;;;;;;;;;;;;;21.10;67.83;100811.00;5026692;28;1973;-69
2021/07/27 07:24:24;;;;;;;;;;;;;;;21.08;67.98;100813.03;5028302;28;1859;-71
2021/07/27 07:26:50;;;;;;;;;;;;;;;21.12;67.71;100817.09;5019422;28;1809;-70
2021/07/27 07:29:15;;;;;;;;;;;;;;;21.14;68.04;100824.03;5019400;28;1627;-69
2021/07/27 07:31:40;;;;;;;;;;;;;;;21.14;68.35;100826.72;5031215;28;1809;-69
2021/07/27 07:34:05;;;;;;;;;;;;;;;21.11;68.08;100820.81;5028440;28;1496;-67
2021/07/27 07:36:30;;;;;;;;;;;;;;;21.14;68.37;100815.88;5028154;28;1817;-68
2021/07/27 07:38:55;;;;;;;;;;;;;;;21.17;68.02;100817.41;5026334;28;1799;-67
2021/07/27 07:41:20;;;;;;;;;;;;;;;21.16;67.65;100818.44;5032084;28;1893;-65
2021/07/27 07:43:48;;;;;;;;;;;;;;;21.20;68.26;100824.41;5023275;28;1293;-66
2021/07/27 07:46:13;;;;;;;;;;;;;;;21.18;68.03;100815.56;5027299;28;1197;-65
2021/07/27 07:48:38;;;;;;;;;;;;;;;21.18;68.05;100819.13;5029911;28;1305;-65
2021/07/27 07:51:03;;;;;;;;;;;;;;;21.18;68.23;100818.25;5033590;28;1696;-65
2021/07/27 07:53:28;;;;;;;;;;;;;;;21.20;68.44;100818.97;5020841;28;1190;-66
2021/07/27 07:55:54;;;;;;;;;;;;;;;21.23;67.99;100821.34;5036688;28;937;-65
2021/07/27 07:58:19;;;;;;;;;;;;;;;21.26;67.71;100812.88;5051704;28;672;-65
2021/07/27 08:00:44;;;;;;;;;;;;;;;21.29;68.20;100807.13;5034972;28;1915;-65
2021/07/27 08:03:09;;;;;;;;;;;;;;;21.33;67.99;100808.47;5016649;28;1165;-65
2021/07/27 08:05:34;;;;;;;;;;;;;;;21.37;67.40;100802.53;5016405;28;1596;-65
2021/07/27 08:07:59;;;;;;;;;;;;;;;21.41;67.58;100803.91;5016326;28;1339;-65
2021/07/27 08:10:24;;;;;;;;;;;;;;;21.42;67.50;100804.75;5015880;28;1586;-65
2021/07/27 08:12:49;;;;;;;;;;;;;;;21.42;67.64;100804.75;5037553;28;1558;-64
2021/07/27 08:15:14;;;;;;;;;;;;;;;21.41;68.03;100813.91;5028818;28;1788;-65
2021/07/27 08:17:39;;;;;;;;;;;;;;;21.40;68.00;100812.19;4997235;28;800;-66
2021/07/27 08:20:05;;;;;;;;;;;;;;;21.41;67.70;100811.19;5009412;28;1902;-65
2021/07/27 08:22:30;;;;;;;;;;;;;;;21.41;67.73;100814.75;5016313;28;819;-66
2021/07/27 08:24:55;;;;;;;;;;;;;;;21.42;68.18;100802.03;5016772;28;867;-66
2021/07/27 08:27:20;;;;;;;;;;;;;;;21.48;67.71;100806.78;5016401;28;1669;-65
2021/07/27 08:29:45;;;;;;;;;;;;;;;21.45;67.69;100804.41;5026228;28;2868;-66
2021/07/27 08:32:10;;;;;;;;;;;;;;;21.41;68.43;100803.91;5046281;28;1446;-66
2021/07/27 08:34:35;;;;;;;;;;;;;;;21.43;68.13;100809.16;5015976;28;1408;-67
2021/07/27 08:37:00;;;;;;;;;;;;;;;21.44;68.41;100810.84;5015096;28;1513;-67
2021/07/27 08:39:25;;;;;;;;;;;;;;;21.42;67.98;100810.16;5014862;28;1499;-66
2021/07/27 08:41:50;;;;;;;;;;;;;;;21.44;67.94;100806.28;5015216;28;1890;-67
2021/07/27 08:44:15;;;;;;;;;;;;;;;21.45;67.91;100809.84;5042578;28;1519;-66
2021/07/27 08:46:41;;;;;;;;;;;;;;;21.43;68.63;100806.44;5013099;28;1615;-66
2021/07/27 08:49:06;;;;;;;;;;;;;;;21.42;68.71;100812.88;5005177;28;1567;-65
2021/07/27 08:51:31;;;;;;;;;;;;;;;21.42;68.86;100812.88;5015605;28;1528;-66
2021/07/27 08:53:56;;;;;;;;;;;;;;;21.43;68.57;100815.44;5016069;28;1826;-65
2021/07/27 08:56:21;;;;;;;;;;;;;;;21.44;68.77;100816.28;5015795;28;1410;-65
2021/07/27 08:58:46;;;;;;;;;;;;;;;21.43;68.17;100818.13;5015574;28;1578;-65
2021/07/27 09:01:11;;;;;;;;;;;;;;;21.43;68.11;100812.72;5016059;28;1910;-66
2021/07/27 09:03:36;;;;;;;;;;;;;;;21.43;67.94;100825.44;5015383;28;1964;-65
2021/07/27 09:06:01;;;;;;;;;;;;;;;21.41;67.97;100822.88;5014172;28;1629;-65
2021/07/27 09:08:26;;;;;;;;;;;;;;;21.43;67.97;100822.72;5015152;28;1591;-65
2021/07/27 09:10:51;;;;;;;;;;;;;;;21.43;67.95;100825.44;5015329;28;1493;-66
2021/07/27 09:13:16;;;;;;;;;;;;;;;21.42;67.95;100827.28;5015553;28;1419;-65
2021/07/27 09:15:41;;;;;;;;;;;;;;;21.44;67.94;100827.13;5015259;28;1501;-66
2021/07/27 09:18:07;;;;;;;;;;;;;;;21.43;68.11;100828.97;5015245;28;1713;-65
2021/07/27 09:20:33;;;;;;;;;;;;;;;21.43;67.65;100822.72;5014810;28;1977;-65
2021/07/27 09:22:58;;;;;;;;;;;;;;;21.44;67.84;100835.25;5014551;28;1451;-66
2021/07/27 09:25:24;;;;;;;;;;;;;;;21.43;67.54;100836.28;5014815;28;1384;-65
2021/07/27 09:27:49;;;;;;;;;;;;;;;21.46;67.39;100833.22;5014278;28;1450;-65
2021/07/27 09:30:14;;;;;;;;;;;;;;;21.47;67.38;100834.91;5013626;28;1654;-65
2021/07/27 09:32:39;;;;;;;;;;;;;;;21.50;67.72;100831.84;5014114;28;1771;-66
2021/07/27 09:35:04;;;;;;;;;;;;;;;21.52;67.25;100827.09;5046664;28;1400;-66
2021/07/27 09:37:29;;;;;;;;;;;;;;;21.53;67.35;100826.06;5015812;28;1484;-65
2021/07/27 09:39:54;;;;;;;;;;;;;;;21.53;67.77;100827.94;5017161;28;1644;-66
2021/07/27 09:42:19;;;;;;;;;;;;;;;21.55;67.60;100828.63;5013240;28;1965;-65
2021/07/27 09:44:44;;;;;;;;;;;;;;;21.56;67.42;100833.88;5042958;28;1340;-66
2021/07/27 09:47:10;;;;;;;;;;;;;;;21.52;67.77;100832.53;5014466;28;1520;-66
2021/07/27 09:49:35;;;;;;;;;;;;;;;21.51;67.83;100838.13;5014997;28;1806;-66
2021/07/27 09:52:00;;;;;;;;;;;;;;;21.49;67.61;100835.59;5016755;28;1371;-65
2021/07/27 09:54:25;;;;;;;;;;;;;;;21.47;67.69;100845.75;5014146;28;1296;-66
2021/07/27 09:56:51;;;;;;;;;;;;;;;21.50;67.65;100834.56;5014189;28;1424;-66
2021/07/27 09:59:16;;;;;;;;;;;;;;;21.51;67.99;100829.97;5014614;28;1452;-65
2021/07/27 10:01:41;;;;;;;;;;;;;;;21.52;67.63;100837.94;5013775;28;1910;-66
2021/07/27 10:04:06;;;;;;;;;;;;;;;21.48;67.40;100842.03;5014834;28;1408;-66
2021/07/27 10:06:31;;;;;;;;;;;;;;;21.46;67.75;100844.91;5013329;28;1443;-65
2021/07/27 10:08:56;;;;;;;;;;;;;;;21.49;67.85;100838.31;5014608;28;1281;-67
2021/07/27 10:11:22;;;;;;;;;;;;;;;21.52;67.41;100847.94;5022086;28;1627;-66
2021/07/27 10:13:49;;;;;;;;;;;;;;;21.49;67.39;100857.28;5018585;28;1514;-66
2021/07/27 10:16:14;;;;;;;;;;;;;;;21.47;67.22;100856.63;5013930;28;1292;-66
2021/07/27 10:18:40;;;;;;;;;;;;;;;21.44;67.23;100863.22;5018562;28;1562;-66
2021/07/27 10:21:05;;;;;;;;;;;;;;;21.42;67.32;100865.25;5041959;28;1946;-66
2021/07/27 10:23:30;;;;;;;;;;;;;;;21.42;67.82;100864.41;5017890;28;1786;-68
2021/07/27 10:25:55;;;;;;;;;;;;;;;21.44;66.82;100859.66;5022652;28;1295;-67
2021/07/27 10:28:20;;;;;;;;;;;;;;;21.49;67.13;100857.28;5018744;28;1751;-67
2021/07/27 10:30:45;;;;;;;;;;;;;;;21.51;67.54;100857.09;5018276;28;1566;-67
2021/07/27 10:33:10;;;;;;;;;;;;;;;21.52;67.30;100851.50;5018165;28;1508;-68
2021/07/27 10:35:35;;;;;;;;;;;;;;;21.55;66.91;100859.31;5018273;28;1839;-67
2021/07/27 10:38:01;;;;;;;;;;;;;;;21.55;67.26;100858.47;5018219;28;1262;-67
2021/07/27 10:40:26;;;;;;;;;;;;;;;21.57;67.04;100859.13;5018346;28;1897;-68
2021/07/27 10:42:51;;;;;;;;;;;;;;;21.52;66.86;100859.63;5018175;28;1423;-68
2021/07/27 10:45:16;;;;;;;;;;;;;;;21.49;67.37;100862.72;5017650;28;1454;-69
2021/07/27 10:47:41;;;;;;;;;;;;;;;21.45;67.27;100864.06;5019332;28;1592;-70
2021/07/27 10:50:06;;;;;;;;;;;;;;;21.41;67.44;100868.13;5018961;28;1624;-67
2021/07/27 10:52:31;;;;;;;;;;;;;;;21.40;67.11;100869.13;5018012;28;1228;-69
2021/07/27 10:54:57;;;;;;;;;;;;;;;21.35;67.29;100863.38;5014769;28;1883;-71
2021/07/27 10:57:23;;;;;;;;;;;;;;;21.34;67.32;100861.66;5021420;28;1673;-71
2021/07/27 10:59:48;;;;;;;;;;;;;;;21.38;67.35;100855.75;5049554;28;1984;-71
2021/07/27 11:02:15;;;;;;;;;;;;;;;21.43;67.78;100857.97;5019025;28;1964;-73
2021/07/27 11:04:40;;;;;;;;;;;;;;;21.46;67.48;100850.34;5018183;28;1726;-73
2021/07/27 11:07:05;;;;;;;;;;;;;;;21.52;67.25;100847.94;5017424;28;1713;-73
2021/07/27 11:09:30;;;;;;;;;;;;;;;21.57;67.23;100857.28;5049489;28;1829;-73
2021/07/27 11:11:55;;;;;;;;;;;;;;;21.59;67.28;100838.97;5017425;28;1677;-73
2021/07/27 11:14:20;;;;;;;;;;;;;;;21.62;67.31;100844.06;5017783;28;1648;-72
2021/07/27 11:16:45;;;;;;;;;;;;;;;21.65;67.76;100843.72;5016804;28;1362;-72
2021/07/27 11:19:10;;;;;;;;;;;;;;;21.66;67.65;100837.28;5048774;28;1637;-71
2021/07/27 11:21:35;;;;;;;;;;;;;;;21.69;67.66;100844.19;5049231;28;2031;-71
2021/07/27 11:24:00;;;;;;;;;;;;;;;21.72;67.31;100850.13;5027584;28;1516;-70
2021/07/27 11:26:26;;;;;;;;;;;;;;;21.70;67.21;100857.59;5017696;28;1804;-70
2021/07/27 11:28:51;;;;;;;;;;;;;;;21.68;67.58;100847.94;5016801;28;1665;-69
2021/07/27 11:31:17;;;;;;;;;;;;;;;21.67;67.65;100847.09;5017126;28;1674;-71
2021/07/27 11:33:42;;;;;;;;;;;;;;;21.66;67.50;100848.13;5016381;28;1785;-71
2021/07/27 11:36:07;;;;;;;;;;;;;;;21.67;67.94;100841.69;5016531;28;1398;-72
2021/07/27 11:38:32;;;;;;;;;;;;;;;21.66;67.61;100837.28;5016628;28;1495;-70
2021/07/27 11:40:57;;;;;;;;;;;;;;;21.68;67.60;100837.91;5016844;28;1894;-70
2021/07/27 11:43:23;;;;;;;;;;;;;;;21.64;67.86;100828.47;5017156;28;1166;-70
2021/07/27 11:45:48;;;;;;;;;;;;;;;21.65;67.67;100827.44;5016850;28;1445;-70
2021/07/27 11:48:13;;;;;;;;;;;;;;;21.62;67.58;100825.06;5036758;28;1668;-69
2021/07/27 11:50:39;;;;;;;;;;;;;;;21.61;67.37;100814.38;5016950;28;1573;-72
2021/07/27 11:53:04;;;;;;;;;;;;;;;21.61;67.28;100815.25;5016283;28;1638;-71
2021/07/27 11:55:29;;;;;;;;;;;;;;;21.62;67.01;100816.94;5047742;28;1366;-69
2021/07/27 11:57:54;;;;;;;;;;;;;;;21.61;66.92;100809.81;5017649;28;1278;-73
2021/07/27 12:00:19;;;;;;;;;;;;;;;21.47;66.93;100813.22;5014795;28;1914;-73
2021/07/27 12:02:44;;;;;;;;;;;;;;;21.48;66.87;100820.34;5047093;28;1733;-70
2021/07/27 12:05:09;;;;;;;;;;;;;;;21.52;67.67;100821.66;5013793;28;2610;-72
2021/07/27 12:07:34;;;;;;;;;;;;;;;21.53;67.81;100819.81;5016517;28;1466;-71
2021/07/27 12:09:59;;;;;;;;;;;;;;;21.50;68.19;100826.41;5016615;28;1820;-71
2021/07/27 12:12:25;;;;;;;;;;;;;;;21.53;67.62;100817.09;5017023;28;1888;-70
2021/07/27 12:14:50;;;;;;;;;;;;;;;21.54;67.20;100808.78;5016885;28;1933;-71
2021/07/27 12:17:15;;;;;;;;;;;;;;;21.57;66.62;100818.44;5016830;28;1583;-71
2021/07/27 12:19:41;;;;;;;;;;;;;;;21.55;65.71;100821.34;5016636;28;1893;-71
2021/07/27 12:22:06;;;;;;;;;;;;;;;21.52;65.55;100827.09;5016337;28;1955;-73
2021/07/27 12:24:31;;;;;;;;;;;;;;;21.54;65.35;100826.94;5031267;28;1657;-70
2021/07/27 12:26:57;;;;;;;;;;;;;;;21.57;65.44;100824.72;5016071;28;1471;-72
2021/07/27 12:29:22;;;;;;;;;;;;;;;21.60;65.64;100821.69;5016325;28;1473;-70
2021/07/27 12:31:47;;;;;;;;;;;;;;;21.60;64.81;100824.38;5016339;28;1814;-69
2021/07/27 12:34:12;;;;;;;;;;;;;;;21.56;64.71;100827.59;5029273;28;1542;-70
2021/07/27 12:36:38;;;;;;;;;;;;;;;21.54;64.38;100827.78;5015864;28;1667;-70
2021/07/27 12:39:03;;;;;;;;;;;;;;;21.53;62.88;100820.66;5016202;28;1852;-70
2021/07/27 12:41:28;;;;;;;;;;;;;;;21.55;63.06;100821.34;5016014;28;1961;-71
2021/07/27 12:43:53;;;;;;;;;;;;;;;21.57;63.09;100813.88;5014928;28;1514;-70
2021/07/27 12:46:21;;;;;;;;;;;;;;;21.60;63.26;100805.41;5046595;28;1694;-71
2021/07/27 12:48:47;;;;;;;;;;;;;;;21.64;63.17;100808.63;5015923;28;1098;-70
2021/07/27 12:51:12;;;;;;;;;;;;;;;21.67;63.85;100814.56;5015563;28;1586;-71
2021/07/27 12:53:37;;;;;;;;;;;;;;;21.68;64.20;100810.78;5030840;28;1569;-72